createdAt,value
2018-05-19T00:01:30.249Z,93.90
2018-05-19T00:03:57.777Z,93.90
2018-05-19T00:06:25.295Z,93.80
2018-05-19T00:08:52.833Z,93.90
2018-05-19T00:11:20.354Z,93.90
2018-05-19T00:13:47.875Z,93.90
2018-05-19T00:16:15.402Z,93.80
2018-05-19T00:18:42.918Z,93.80
2018-05-19T00:21:10.449Z,93.80
2018-05-19T00:23:37.961Z,93.80
2018-05-19T00:26:06.249Z,93.80
2018-05-19T00:28:34.527Z,93.80
2018-05-19T00:31:02.049Z,93.70
2018-05-19T00:33:29.568Z,93.80
2018-05-19T00:35:57.107Z,93.70
2018-05-19T00:38:24.636Z,93.60
2018-05-19T00:40:52.158Z,93.50
2018-05-19T00:43:19.673Z,93.60
2018-05-19T00:45:47.954Z,93.50
2018-05-19T00:48:16.244Z,93.50
2018-05-19T00:50:43.763Z,93.40
2018-05-19T00:53:11.281Z,93.50
2018-05-19T00:55:38.793Z,93.40
2018-05-19T00:58:07.082Z,93.20
2018-05-19T01:00:35.361Z,93.10
2018-05-19T01:03:03.637Z,93.10
2018-05-19T01:05:31.166Z,93.10
2018-05-19T01:08:00.198Z,92.90
2018-05-19T01:10:27.717Z,92.90
2018-05-19T01:12:55.242Z,92.80
2018-05-19T01:15:22.765Z,92.90
2018-05-19T01:17:51.054Z,93.00
2018-05-19T01:20:18.580Z,93.00
2018-05-19T01:22:46.099Z,93.00
2018-05-19T01:25:13.625Z,93.10
2018-05-19T01:27:41.147Z,93.60
2018-05-19T01:30:08.661Z,93.90
2018-05-19T01:32:36.183Z,94.20
2018-05-19T01:35:04.469Z,94.50
2018-05-19T01:37:32.763Z,94.50
2018-05-19T01:40:00.298Z,94.50
2018-05-19T01:42:28.656Z,94.30
2018-05-19T01:44:56.125Z,94.30
2018-05-19T01:47:23.697Z,94.10
2018-05-19T01:49:51.974Z,93.30
2018-05-19T01:52:20.259Z,93.10
2018-05-19T01:54:47.794Z,93.10
2018-05-19T01:57:16.089Z,93.00
2018-05-19T01:59:44.373Z,92.70
2018-05-19T02:02:11.889Z,92.70
2018-05-19T02:04:39.413Z,92.60
2018-05-19T02:07:06.949Z,92.50
2018-05-19T02:09:35.242Z,92.40
2018-05-19T02:12:02.761Z,92.40
2018-05-19T02:14:30.293Z,92.50
2018-05-19T02:16:57.810Z,92.60
2018-05-19T02:19:25.342Z,92.50
2018-05-19T02:21:52.874Z,92.20
2018-05-19T02:24:20.389Z,92.20
2018-05-19T02:26:47.905Z,92.10
2018-05-19T02:29:15.419Z,91.90
2018-05-19T02:31:42.938Z,91.80
2018-05-19T02:34:11.225Z,92.10
2018-05-19T02:36:39.524Z,92.60
2018-05-19T02:39:07.044Z,92.60
2018-05-19T02:41:34.557Z,92.90
2018-05-19T02:44:02.103Z,93.50
2018-05-19T02:46:29.621Z,93.80
2018-05-19T02:48:57.136Z,93.90
2018-05-19T02:51:24.653Z,93.80
2018-05-19T02:53:52.933Z,93.70
2018-05-19T02:56:21.222Z,93.60
2018-05-19T02:58:48.737Z,93.60
2018-05-19T03:01:16.261Z,93.50
2018-05-19T03:03:43.781Z,93.30
2018-05-19T03:06:12.065Z,93.10
2018-05-19T03:08:40.355Z,93.00
2018-05-19T03:11:07.878Z,93.00
2018-05-19T03:13:35.402Z,93.00
2018-05-19T03:16:02.923Z,93.00
2018-05-19T03:18:30.470Z,93.10
2018-05-19T03:20:58.749Z,93.10
2018-05-19T03:23:26.273Z,93.10
2018-05-19T03:25:53.799Z,93.10
2018-05-19T03:28:21.317Z,93.10
2018-05-19T03:30:49.609Z,92.90
2018-05-19T03:33:17.133Z,92.90
2018-05-19T03:35:44.661Z,92.80
2018-05-19T03:38:12.175Z,92.70
2018-05-19T03:40:40.458Z,92.60
2018-05-19T03:43:08.737Z,93.00
2018-05-19T03:45:37.025Z,92.60
2018-05-19T03:48:04.537Z,92.60
2018-05-19T03:50:32.074Z,92.70
2018-05-19T03:52:59.600Z,92.60
2018-05-19T03:55:27.114Z,92.50
2018-05-19T03:58:06.649Z,92.60
2018-05-19T04:00:46.126Z,92.70
2018-05-19T04:03:13.662Z,92.70
2018-05-19T04:05:41.189Z,92.60
2018-05-19T04:08:09.657Z,93.10
2018-05-19T04:10:37.178Z,93.20
2018-05-19T04:13:05.456Z,93.10
2018-05-19T04:15:33.750Z,93.20
2018-05-19T04:18:01.270Z,93.20
2018-05-19T04:20:28.815Z,93.20
2018-05-19T04:22:56.331Z,93.20
2018-05-19T04:25:23.848Z,93.40
2018-05-19T04:27:51.364Z,93.40
2018-05-19T04:30:18.886Z,93.50
2018-05-19T04:32:47.161Z,93.60
2018-05-19T04:35:15.445Z,93.80
2018-05-19T04:37:42.968Z,93.80
2018-05-19T04:40:10.562Z,93.90
2018-05-19T04:42:38.087Z,94.00
2018-05-19T04:45:05.610Z,94.20
2018-05-19T04:47:33.136Z,94.40
2018-05-19T04:50:01.421Z,94.60
2018-05-19T04:52:28.946Z,94.60
2018-05-19T04:54:56.454Z,95.10
2018-05-19T04:57:23.971Z,94.90
2018-05-19T04:59:51.498Z,94.80
2018-05-19T05:02:19.009Z,94.70
2018-05-19T05:04:46.529Z,93.80
2018-05-19T05:07:14.229Z,93.80
2018-05-19T05:09:42.517Z,93.50
2018-05-19T05:12:10.046Z,93.50
2018-05-19T05:14:37.558Z,93.50
2018-05-19T05:17:05.077Z,93.10
2018-05-19T05:19:33.361Z,92.80
2018-05-19T05:22:00.890Z,92.80
2018-05-19T05:24:28.418Z,92.80
2018-05-19T05:26:55.935Z,92.70
2018-05-19T05:29:24.218Z,93.00
2018-05-19T05:31:51.758Z,93.00
2018-05-19T05:34:20.037Z,92.10
2018-05-19T05:36:48.322Z,92.00
2018-05-19T05:39:16.601Z,92.20
2018-05-19T05:41:44.886Z,92.10
2018-05-19T05:44:12.410Z,92.10
2018-05-19T05:46:39.941Z,92.10
2018-05-19T05:49:07.461Z,92.00
2018-05-19T05:51:34.997Z,91.50
2018-05-19T05:54:03.281Z,91.40
2018-05-19T05:56:31.565Z,91.30
2018-05-19T05:58:59.847Z,91.20
2018-05-19T06:01:27.366Z,91.20
2018-05-19T06:03:54.905Z,91.10
2018-05-19T06:06:22.444Z,90.90
2018-05-19T06:08:49.965Z,90.80
2018-05-19T06:11:18.245Z,91.10
2018-05-19T06:13:46.541Z,90.90
2018-05-19T06:16:14.062Z,90.90
2018-05-19T06:18:41.629Z,90.70
2018-05-19T06:21:09.105Z,91.60
2018-05-19T06:23:37.385Z,91.10
2018-05-19T06:26:05.686Z,90.70
2018-05-19T06:28:33.213Z,90.70
2018-05-19T06:31:01.506Z,89.50
2018-05-19T06:33:29.030Z,89.50
2018-05-19T06:35:56.553Z,87.70
2018-05-19T06:38:24.072Z,85.20
2018-05-19T06:40:52.365Z,85.00
2018-05-19T06:43:19.873Z,84.90
2018-05-19T06:45:47.631Z,85.80
2018-05-19T06:48:16.167Z,83.70
2018-05-19T06:50:44.435Z,84.30
2018-05-19T06:53:11.954Z,84.30
2018-05-19T06:55:39.481Z,83.40
2018-05-19T06:58:07.028Z,83.80
2018-05-19T07:00:34.549Z,84.60
2018-05-19T07:03:02.833Z,85.20
2018-05-19T07:05:31.337Z,85.10
2018-05-19T07:07:58.858Z,85.00
2018-05-19T07:10:26.389Z,84.40
2018-05-19T07:12:53.905Z,83.30
2018-05-19T07:15:21.426Z,83.70
2018-05-19T07:17:48.949Z,84.00
2018-05-19T07:20:16.473Z,83.80
2018-05-19T07:22:44.769Z,81.50
2018-05-19T07:25:12.324Z,81.40
2018-05-19T07:27:39.853Z,82.10
2018-05-19T07:30:08.416Z,81.60
2018-05-19T07:32:36.247Z,81.50
2018-05-19T07:35:04.016Z,81.00
2018-05-19T07:37:31.553Z,81.60
2018-05-19T07:39:59.097Z,80.00
2018-05-19T07:42:27.393Z,80.10
2018-05-19T07:44:54.924Z,80.00
2018-05-19T07:47:23.534Z,79.70
2018-05-19T07:49:51.418Z,79.70
2018-05-19T07:52:19.285Z,79.70
2018-05-19T07:54:47.152Z,78.70
2018-05-19T07:57:15.022Z,80.50
2018-05-19T07:59:42.824Z,79.90
2018-05-19T08:02:11.469Z,77.10
2018-05-19T08:04:39.235Z,77.00
2018-05-19T08:07:07.102Z,75.90
2018-05-19T08:09:34.696Z,75.90
2018-05-19T08:12:02.229Z,78.00
2018-05-19T08:14:29.756Z,77.80
2018-05-19T08:16:57.317Z,77.30
2018-05-19T08:19:25.610Z,74.60
2018-05-19T08:21:53.141Z,74.60
2018-05-19T08:24:21.442Z,74.10
2018-05-19T08:26:48.954Z,74.10
2018-05-19T08:29:16.469Z,73.00
2018-05-19T08:31:43.994Z,72.80
2018-05-19T08:34:12.277Z,70.90
2018-05-19T08:36:40.573Z,74.10
2018-05-19T08:39:08.104Z,74.10
2018-05-19T08:41:36.394Z,71.30
2018-05-19T08:44:04.696Z,72.60
2018-05-19T08:46:32.217Z,72.50
2018-05-19T08:49:00.515Z,70.40
2018-05-19T08:51:28.026Z,70.40
2018-05-19T08:53:55.543Z,69.30
2018-05-19T08:56:23.061Z,68.50
2018-05-19T08:58:50.575Z,68.20
2018-05-19T09:01:18.100Z,73.00
2018-05-19T09:03:46.387Z,73.70
2018-05-19T09:06:13.919Z,73.60
2018-05-19T09:08:41.437Z,72.60
2018-05-19T09:11:08.961Z,71.40
2018-05-19T09:13:36.485Z,69.00
2018-05-19T09:16:05.502Z,71.30
2018-05-19T09:18:33.789Z,65.90
2018-05-19T09:21:01.301Z,65.90
2018-05-19T09:23:28.853Z,66.00
2018-05-19T09:25:56.362Z,66.20
2018-05-19T09:28:24.645Z,63.30
2018-05-19T09:30:52.158Z,63.30
2018-05-19T09:33:19.685Z,63.10
2018-05-19T09:35:47.301Z,63.10
2018-05-19T09:38:14.748Z,64.50
2018-05-19T09:40:43.043Z,64.90
2018-05-19T09:43:11.323Z,66.90
2018-05-19T09:45:39.613Z,64.30
2018-05-19T09:48:07.126Z,64.30
2018-05-19T09:50:34.648Z,63.90
2018-05-19T09:53:02.170Z,65.30
2018-05-19T09:55:30.465Z,68.40
2018-05-19T09:57:57.991Z,68.40
2018-05-19T10:00:26.282Z,68.60
2018-05-19T10:02:54.557Z,67.50
2018-05-19T10:05:22.837Z,65.00
2018-05-19T10:07:51.121Z,62.90
2018-05-19T10:10:19.400Z,63.60
2018-05-19T10:12:46.918Z,63.50
2018-05-19T10:15:15.943Z,59.90
2018-05-19T10:17:44.225Z,60.50
2018-05-19T10:20:12.523Z,61.90
2018-05-19T10:22:40.137Z,61.90
2018-05-19T10:25:08.337Z,60.20
2018-05-19T10:27:36.614Z,62.00
2018-05-19T10:30:04.897Z,65.00
2018-05-19T10:32:32.414Z,64.80
2018-05-19T10:35:00.707Z,61.80
2018-05-19T10:37:28.226Z,61.70
2018-05-19T10:39:55.749Z,59.10
2018-05-19T10:42:23.262Z,59.60
2018-05-19T10:44:50.788Z,58.70
2018-05-19T10:47:18.309Z,57.40
2018-05-19T10:49:46.598Z,57.90
2018-05-19T10:52:14.869Z,58.50
2018-05-19T10:54:43.178Z,57.60
2018-05-19T10:57:10.689Z,57.60
2018-05-19T10:59:38.197Z,57.80
2018-05-19T11:02:05.709Z,57.30
2018-05-19T11:04:33.989Z,59.00
2018-05-19T11:07:02.278Z,57.70
2018-05-19T11:09:30.557Z,60.50
2018-05-19T11:11:58.849Z,58.10
2018-05-19T11:14:26.361Z,57.90
2018-05-19T11:16:53.886Z,57.10
2018-05-19T11:19:21.400Z,57.90
2018-05-19T11:21:49.681Z,59.20
2018-05-19T11:24:17.965Z,56.90
2018-05-19T11:26:46.261Z,58.30
2018-05-19T11:29:13.778Z,58.20
2018-05-19T11:31:42.067Z,55.00
2018-05-19T11:34:10.353Z,55.90
2018-05-19T11:36:37.902Z,55.90
2018-05-19T11:39:06.207Z,55.40
2018-05-19T11:41:33.725Z,55.30
2018-05-19T11:44:02.010Z,53.30
2018-05-19T11:46:30.297Z,51.90
2018-05-19T11:48:58.577Z,51.90
2018-05-19T11:51:26.871Z,53.90
2018-05-19T11:53:54.385Z,53.80
2018-05-19T11:56:21.901Z,53.90
2018-05-19T11:58:49.438Z,52.50
2018-05-19T12:01:16.950Z,50.90
2018-05-19T12:03:44.473Z,51.00
2018-05-19T12:06:11.997Z,52.70
2018-05-19T12:08:40.285Z,54.50
2018-05-19T12:11:08.557Z,53.80
2018-05-19T12:13:36.837Z,53.90
2018-05-19T12:16:04.355Z,53.90
2018-05-19T12:18:31.875Z,53.30
2018-05-19T12:20:59.391Z,50.80
2018-05-19T12:23:27.683Z,51.40
2018-05-19T12:25:55.976Z,50.00
2018-05-19T12:28:23.494Z,50.00
2018-05-19T12:30:51.006Z,50.30
2018-05-19T12:33:18.526Z,50.40
2018-05-19T12:35:46.832Z,51.30
2018-05-19T12:38:14.374Z,51.20
2018-05-19T12:40:42.654Z,50.40
2018-05-19T12:43:10.934Z,49.10
2018-05-19T12:45:38.442Z,49.00
2018-05-19T12:48:05.958Z,51.90
2018-05-19T12:50:33.471Z,51.50
2018-05-19T12:53:00.989Z,48.60
2018-05-19T12:55:28.514Z,49.00
2018-05-19T12:57:56.815Z,47.90
2018-05-19T13:00:24.329Z,47.90
2018-05-19T13:02:51.850Z,47.10
2018-05-19T13:05:19.369Z,48.20
2018-05-19T13:07:47.649Z,48.30
2018-05-19T13:10:15.934Z,46.70
2018-05-19T13:12:43.465Z,46.70
2018-05-19T13:15:10.977Z,45.90
2018-05-19T13:17:38.497Z,47.90
2018-05-19T13:20:06.792Z,48.00
2018-05-19T13:22:34.304Z,48.00
2018-05-19T13:25:01.821Z,45.70
2018-05-19T13:27:29.342Z,45.70
2018-05-19T13:29:57.637Z,46.40
2018-05-19T13:32:25.162Z,46.40
2018-05-19T13:34:52.694Z,44.60
2018-05-19T13:37:20.405Z,44.60
2018-05-19T13:39:48.686Z,44.10
2018-05-19T13:42:16.961Z,44.80
2018-05-19T13:44:45.237Z,47.20
2018-05-19T13:47:13.522Z,45.10
2018-05-19T13:49:41.801Z,45.00
2018-05-19T13:52:09.365Z,45.00
2018-05-19T13:54:36.842Z,42.60
2018-05-19T13:57:04.377Z,44.90
2018-05-19T13:59:31.881Z,43.90
2018-05-19T14:01:59.382Z,44.10
2018-05-19T14:04:27.670Z,43.90
2018-05-19T14:06:55.248Z,43.80
2018-05-19T14:09:22.761Z,42.30
2018-05-19T14:11:50.290Z,43.80
2018-05-19T14:14:17.797Z,44.50
2018-05-19T14:16:46.084Z,44.90
2018-05-19T14:19:13.597Z,44.90
2018-05-19T14:21:41.198Z,43.80
2018-05-19T14:24:09.477Z,42.40
2018-05-19T14:26:37.754Z,43.50
2018-05-19T14:29:06.044Z,42.70
2018-05-19T14:31:33.557Z,42.60
2018-05-19T14:34:01.077Z,44.00
2018-05-19T14:36:28.593Z,43.40
2018-05-19T14:38:56.881Z,41.40
2018-05-19T14:41:25.159Z,40.80
2018-05-19T14:43:52.690Z,40.80
2018-05-19T14:46:20.209Z,42.50
2018-05-19T14:48:47.726Z,43.00
2018-05-19T14:51:16.009Z,44.90
2018-05-19T14:53:44.291Z,43.00
2018-05-19T14:56:11.850Z,43.00
2018-05-19T14:58:40.140Z,43.50
2018-05-19T15:01:07.655Z,43.50
2018-05-19T15:03:35.187Z,43.80
2018-05-19T15:06:02.697Z,40.90
2018-05-19T15:08:30.969Z,42.70
2018-05-19T15:10:59.257Z,42.60
2018-05-19T15:13:26.761Z,42.60
2018-05-19T15:15:54.362Z,43.50
2018-05-19T15:18:22.641Z,43.80
2018-05-19T15:20:50.913Z,43.50
2018-05-19T15:23:19.277Z,42.70
2018-05-19T15:25:46.738Z,42.70
2018-05-19T15:28:14.241Z,41.50
2018-05-19T15:30:41.755Z,43.10
2018-05-19T15:33:09.337Z,43.00
2018-05-19T15:35:36.793Z,44.10
2018-05-19T15:38:05.088Z,42.50
2018-05-19T15:40:32.594Z,42.50
2018-05-19T15:43:00.110Z,42.80
2018-05-19T15:45:27.628Z,43.60
2018-05-19T15:47:55.913Z,46.00
2018-05-19T15:50:24.221Z,46.90
2018-05-19T15:52:51.755Z,46.90
2018-05-19T15:55:20.082Z,48.60
2018-05-19T15:57:47.560Z,49.20
2018-05-19T16:00:16.577Z,45.80
2018-05-19T16:02:44.862Z,44.90
2018-05-19T16:05:13.146Z,45.70
2018-05-19T16:07:40.653Z,45.60
2018-05-19T16:10:08.153Z,44.00
2018-05-19T16:12:36.441Z,45.00
2018-05-19T16:15:03.996Z,45.00
2018-05-19T16:17:31.521Z,43.60
2018-05-19T16:19:59.065Z,44.10
2018-05-19T16:22:26.610Z,43.60
2018-05-19T16:24:54.125Z,45.40
2018-05-19T16:27:22.406Z,47.50
2018-05-19T16:29:50.673Z,47.50
2018-05-19T16:32:18.953Z,47.30
2018-05-19T16:34:47.230Z,47.70
2018-05-19T16:37:15.505Z,48.80
2018-05-19T16:39:43.789Z,49.00
2018-05-19T16:42:12.082Z,49.70
2018-05-19T16:44:39.594Z,49.60
2018-05-19T16:47:07.109Z,50.50
2018-05-19T16:49:34.639Z,51.40
2018-05-19T16:52:02.916Z,52.70
2018-05-19T16:54:31.233Z,53.30
2018-05-19T16:56:58.726Z,53.30
2018-05-19T16:59:26.245Z,53.80
2018-05-19T17:01:53.753Z,54.50
2018-05-19T17:04:22.037Z,54.00
2018-05-19T17:06:50.312Z,53.30
2018-05-19T17:09:18.599Z,53.20
2018-05-19T17:11:46.874Z,53.40
2018-05-19T17:14:15.153Z,53.70
2018-05-19T17:16:42.668Z,53.60
2018-05-19T17:19:10.982Z,53.90
2018-05-19T17:21:39.258Z,54.10
2018-05-19T17:24:07.564Z,53.80
2018-05-19T17:26:35.065Z,53.70
2018-05-19T17:29:02.579Z,53.00
2018-05-19T17:31:30.085Z,52.70
2018-05-19T17:33:58.385Z,52.50
2018-05-19T17:36:26.653Z,52.50
2018-05-19T17:38:54.925Z,52.70
2018-05-19T17:41:22.441Z,52.80
2018-05-19T17:43:49.941Z,53.20
2018-05-19T17:46:17.478Z,53.50
2018-05-19T17:48:44.990Z,54.50
2018-05-19T17:51:12.499Z,53.00
2018-05-19T17:53:40.021Z,52.90
2018-05-19T17:56:07.645Z,53.10
2018-05-19T17:58:35.926Z,53.60
2018-05-19T18:01:04.201Z,53.90
2018-05-19T18:03:32.469Z,54.00
2018-05-19T18:05:59.981Z,54.00
2018-05-19T18:08:27.489Z,54.90
2018-05-19T18:10:55.010Z,54.30
2018-05-19T18:13:22.529Z,54.40
2018-05-19T18:15:50.042Z,54.30
2018-05-19T18:18:17.626Z,54.40
2018-05-19T18:20:45.909Z,55.20
2018-05-19T18:23:14.185Z,55.40
2018-05-19T18:25:42.449Z,55.50
2018-05-19T18:28:10.725Z,55.70
2018-05-19T18:30:38.235Z,55.70
2018-05-19T18:33:05.772Z,55.50
2018-05-19T18:35:33.301Z,56.30
2018-05-19T18:38:01.579Z,56.90
2018-05-19T18:40:29.874Z,57.20
2018-05-19T18:42:58.161Z,57.50
2018-05-19T18:45:25.678Z,57.50
2018-05-19T18:47:53.210Z,58.00
2018-05-19T18:50:20.717Z,58.20
2018-05-19T18:53:00.028Z,58.30
2018-05-19T18:55:27.545Z,58.30
2018-05-19T18:57:55.913Z,59.10
2018-05-19T19:00:23.506Z,59.00
2018-05-19T19:02:51.097Z,59.10
2018-05-19T19:05:19.384Z,60.00
2018-05-19T19:07:46.901Z,59.90
2018-05-19T19:10:14.425Z,59.90
2018-05-19T19:12:41.930Z,60.30
2018-05-19T19:15:09.449Z,60.70
2018-05-19T19:17:36.966Z,60.80
2018-05-19T19:20:04.477Z,60.80
2018-05-19T19:22:31.989Z,61.00
2018-05-19T19:25:00.284Z,62.00
2018-05-19T19:27:28.577Z,61.50
2018-05-19T19:29:56.110Z,61.40
2018-05-19T19:32:24.486Z,61.70
2018-05-19T19:34:52.677Z,62.20
2018-05-19T19:37:20.960Z,62.70
2018-05-19T19:39:48.498Z,62.60
2018-05-19T19:42:16.795Z,63.20
2018-05-19T19:44:44.317Z,63.20
2018-05-19T19:47:11.833Z,63.10
2018-05-19T19:49:39.353Z,63.30
2018-05-19T19:52:07.768Z,64.10
2018-05-19T19:54:35.285Z,64.10
2018-05-19T19:57:03.561Z,65.20
2018-05-19T19:59:31.119Z,64.40
2018-05-19T20:01:58.620Z,64.60
2018-05-19T20:04:26.138Z,64.90
2018-05-19T20:06:54.425Z,65.50
2018-05-19T20:09:22.701Z,65.80
2018-05-19T20:11:50.993Z,65.90
2018-05-19T20:14:18.498Z,65.80
2018-05-19T20:16:47.197Z,66.20
2018-05-19T20:19:14.721Z,66.60
2018-05-19T20:21:42.228Z,67.10
2018-05-19T20:24:09.738Z,67.40
2018-05-19T20:26:37.245Z,67.50
2018-05-19T20:29:04.830Z,67.80
2018-05-19T20:31:32.337Z,68.10
2018-05-19T20:33:59.858Z,68.40
2018-05-19T20:36:27.366Z,68.60
2018-05-19T20:38:55.058Z,68.90
2018-05-19T20:41:23.428Z,69.20
2018-05-19T20:43:50.932Z,69.10
2018-05-19T20:46:18.449Z,69.30
2018-05-19T20:48:46.725Z,69.70
2018-05-19T20:51:15.096Z,69.80
2018-05-19T20:53:42.537Z,69.70
2018-05-19T20:56:11.566Z,70.00
2018-05-19T20:58:39.846Z,70.30
2018-05-19T21:01:07.386Z,70.30
2018-05-19T21:03:35.666Z,70.70
2018-05-19T21:06:03.950Z,71.00
2018-05-19T21:08:32.229Z,71.00
2018-05-19T21:11:00.509Z,71.00
2018-05-19T21:13:28.793Z,71.10
2018-05-19T21:15:56.298Z,70.90
2018-05-19T21:18:23.824Z,71.10
2018-05-19T21:20:51.345Z,71.60
2018-05-19T21:23:19.641Z,72.10
2018-05-19T21:25:47.149Z,72.00
2018-05-19T21:28:14.662Z,72.20
2018-05-19T21:30:42.186Z,72.50
2018-05-19T21:33:09.773Z,72.90
2018-05-19T21:35:38.046Z,73.30
2018-05-19T21:38:06.322Z,73.40
2018-05-19T21:40:34.598Z,73.50
2018-05-19T21:43:02.889Z,73.80
2018-05-19T21:45:30.393Z,73.80
2018-05-19T21:47:57.897Z,73.90
2018-05-19T21:50:26.179Z,74.10
2018-05-19T21:52:53.729Z,74.10
2018-05-19T21:55:22.002Z,74.70
2018-05-19T21:57:50.289Z,75.50
2018-05-19T22:00:17.797Z,75.50
2018-05-19T22:02:45.489Z,75.90
2018-05-19T22:05:13.009Z,76.00
2018-05-19T22:07:40.517Z,75.80
2018-05-19T22:10:08.797Z,75.70
2018-05-19T22:12:37.078Z,75.80
2018-05-19T22:15:04.595Z,75.80
2018-05-19T22:17:32.110Z,76.00
2018-05-19T22:19:59.627Z,76.30
2018-05-19T22:22:27.445Z,76.70
2018-05-19T22:24:54.846Z,76.90
2018-05-19T22:27:22.366Z,76.90
2018-05-19T22:29:49.887Z,77.10
2018-05-19T22:32:18.165Z,77.10
2018-05-19T22:34:46.437Z,77.30
2018-05-19T22:37:14.725Z,77.70
2018-05-19T22:39:43.001Z,77.90
2018-05-19T22:42:10.513Z,77.90
2018-05-19T22:44:38.029Z,78.10
2018-05-19T22:47:05.598Z,78.10
2018-05-19T22:49:33.125Z,78.30
2018-05-19T22:52:01.410Z,78.40
2018-05-19T22:54:29.698Z,78.40
2018-05-19T22:56:57.210Z,78.40
2018-05-19T22:59:24.737Z,78.30
2018-05-19T23:01:52.246Z,78.30
2018-05-19T23:04:20.529Z,78.70
2018-05-19T23:06:48.821Z,78.30
2018-05-19T23:09:17.112Z,78.30
2018-05-19T23:11:44.620Z,78.30
2018-05-19T23:14:12.133Z,78.30
2018-05-19T23:16:39.657Z,78.50
2018-05-19T23:19:07.943Z,79.50
2018-05-19T23:21:35.474Z,78.60
2018-05-19T23:24:04.489Z,78.70
2018-05-19T23:26:32.767Z,78.70
2018-05-19T23:29:01.049Z,78.70
2018-05-19T23:31:29.323Z,78.90
2018-05-19T23:33:57.610Z,79.00
2018-05-19T23:36:25.125Z,79.00
2018-05-19T23:38:53.413Z,79.10
2018-05-19T23:41:20.933Z,79.20
2018-05-19T23:43:48.441Z,79.20
2018-05-19T23:46:16.728Z,79.70
2018-05-19T23:48:45.010Z,79.70
2018-05-19T23:51:13.296Z,80.30
2018-05-19T23:53:40.810Z,80.30
2018-05-19T23:56:08.338Z,80.60
2018-05-19T23:58:35.865Z,80.60
